sensor_id;sensor_type;location;lat;lon;timestamp;pressure;altitude;pressure_sealevel;temperature;humidity
56789;BME280;42657;51.650;17.780;2022-11-15T00:01:17;100343.30;;;1.41;86.25
56789;BME280;42657;51.650;17.780;2022-11-15T00:04:19;100344.33;;;1.41;86.16
56789;BME280;42657;51.650;17.780;2022-11-15T00:07:20;100336.52;;;1.41;86.40
56789;BME280;42657;51.650;17.780;2022-11-15T00:10:22;100336.90;;;1.43;86.41
56789;BME280;42657;51.650;17.780;2022-11-15T00:13:24;100330.61;;;1.41;86.45
56789;BME280;42657;51.650;17.780;2022-11-15T00:16:25;100328.34;;;1.37;86.37
56789;BME280;42657;51.650;17.780;2022-11-15T00:19:27;100319.94;;;1.34;86.41
56789;BME280;42657;51.650;17.780;2022-11-15T00:22:32;100319.36;;;1.31;86.55
56789;BME280;42657;51.650;17.780;2022-11-15T00:25:34;100311.27;;;1.31;86.37
56789;BME280;42657;51.650;17.780;2022-11-15T00:28:36;100314.13;;;1.31;86.58
56789;BME280;42657;51.650;17.780;2022-11-15T00:31:37;100306.46;;;1.34;86.64
56789;BME280;42657;51.650;17.780;2022-11-15T00:34:39;100304.43;;;1.35;86.80
56789;BME280;42657;51.650;17.780;2022-11-15T00:37:40;100302.76;;;1.34;86.72
56789;BME280;42657;51.650;17.780;2022-11-15T00:40:42;100309.83;;;1.34;86.68
56789;BME280;42657;51.650;17.780;2022-11-15T00:43:43;100312.40;;;1.34;86.51
56789;BME280;42657;51.650;17.780;2022-11-15T00:46:45;100303.36;;;1.33;86.54
56789;BME280;42657;51.650;17.780;2022-11-15T00:49:46;100295.44;;;1.28;86.43
56789;BME280;42657;51.650;17.780;2022-11-15T00:56:27;100288.41;;;1.13;86.34
56789;BME280;42657;51.650;17.780;2022-11-15T00:59:28;100284.33;;;1.08;86.43
56789;BME280;42657;51.650;17.780;2022-11-15T01:02:30;100278.63;;;1.09;86.50
56789;BME280;42657;51.650;17.780;2022-11-15T01:05:31;100280.34;;;1.08;86.53
56789;BME280;42657;51.650;17.780;2022-11-15T01:08:33;100283.63;;;1.05;86.43
56789;BME280;42657;51.650;17.780;2022-11-15T01:11:35;100277.13;;;0.99;86.39
56789;BME280;42657;51.650;17.780;2022-11-15T01:14:37;100274.80;;;0.93;86.39
56789;BME280;42657;51.650;17.780;2022-11-15T01:17:38;100265.29;;;0.87;86.45
56789;BME280;42657;51.650;17.780;2022-11-15T01:20:41;100259.83;;;0.84;86.33
56789;BME280;42657;51.650;17.780;2022-11-15T01:23:42;100256.69;;;0.84;86.31
56789;BME280;42657;51.650;17.780;2022-11-15T01:26:44;100254.19;;;0.78;86.25
56789;BME280;42657;51.650;17.780;2022-11-15T01:29:45;100251.04;;;0.72;86.31
56789;BME280;42657;51.650;17.780;2022-11-15T01:32:47;100243.08;;;0.68;86.24
56789;BME280;42657;51.650;17.780;2022-11-15T01:35:48;100240.37;;;0.66;86.44
56789;BME280;42657;51.650;17.780;2022-11-15T01:38:55;100237.02;;;0.66;86.42
56789;BME280;42657;51.650;17.780;2022-11-15T01:41:57;100238.27;;;0.68;86.65
56789;BME280;42657;51.650;17.780;2022-11-15T01:44:58;100240.38;;;0.73;86.68
56789;BME280;42657;51.650;17.780;2022-11-15T01:48:00;100242.76;;;0.73;86.79
56789;BME280;42657;51.650;17.780;2022-11-15T01:51:06;100240.66;;;0.73;86.64
56789;BME280;42657;51.650;17.780;2022-11-15T01:54:14;100242.84;;;0.68;86.48
56789;BME280;42657;51.650;17.780;2022-11-15T01:57:17;100234.03;;;0.61;86.46
56789;BME280;42657;51.650;17.780;2022-11-15T02:00:18;100227.95;;;0.57;86.53
56789;BME280;42657;51.650;17.780;2022-11-15T02:03:22;100235.66;;;0.54;86.33
56789;BME280;42657;51.650;17.780;2022-11-15T02:06:27;100229.23;;;0.49;86.39
56789;BME280;42657;51.650;17.780;2022-11-15T02:09:29;100232.23;;;0.43;86.11
56789;BME280;42657;51.650;17.780;2022-11-15T02:12:31;100228.71;;;0.40;86.48
56789;BME280;42657;51.650;17.780;2022-11-15T02:15:40;100224.83;;;0.34;86.27
56789;BME280;42657;51.650;17.780;2022-11-15T02:19:18;100220.76;;;0.25;86.15
56789;BME280;42657;51.650;17.780;2022-11-15T02:22:37;100223.82;;;0.17;86.01
56789;BME280;42657;51.650;17.780;2022-11-15T02:30:20;100217.66;;;0.07;86.11
56789;BME280;42657;51.650;17.780;2022-11-15T02:43:53;100213.40;;;-0.10;86.25
56789;BME280;42657;51.650;17.780;2022-11-15T02:47:07;100208.58;;;-0.08;86.51
56789;BME280;42657;51.650;17.780;2022-11-15T02:50:16;100208.78;;;-0.08;86.40
56789;BME280;42657;51.650;17.780;2022-11-15T02:53:23;100204.06;;;-0.08;86.42
56789;BME280;42657;51.650;17.780;2022-11-15T02:56:25;100197.92;;;-0.10;86.39
56789;BME280;42657;51.650;17.780;2022-11-15T03:02:59;100189.41;;;-0.14;86.60
56789;BME280;42657;51.650;17.780;2022-11-15T03:06:31;100183.31;;;-0.12;86.60
56789;BME280;42657;51.650;17.780;2022-11-15T03:13:02;100181.24;;;-0.11;86.36
56789;BME280;42657;51.650;17.780;2022-11-15T03:16:24;100177.86;;;-0.12;86.56
56789;BME280;42657;51.650;17.780;2022-11-15T03:19:45;100174.78;;;-0.14;86.47
56789;BME280;42657;51.650;17.780;2022-11-15T03:22:48;100175.23;;;-0.15;86.52
56789;BME280;42657;51.650;17.780;2022-11-15T03:25:51;100167.70;;;-0.14;86.51
56789;BME280;42657;51.650;17.780;2022-11-15T03:29:00;100162.92;;;-0.14;86.44
56789;BME280;42657;51.650;17.780;2022-11-15T03:32:31;100158.42;;;-0.12;86.54
56789;BME280;42657;51.650;17.780;2022-11-15T03:35:42;100162.44;;;-0.09;86.68
56789;BME280;42657;51.650;17.780;2022-11-15T03:38:44;100153.15;;;-0.12;86.54
56789;BME280;42657;51.650;17.780;2022-11-15T03:48:26;100157.72;;;-0.26;86.29
56789;BME280;42657;51.650;17.780;2022-11-15T03:51:29;100152.13;;;-0.27;86.40
56789;BME280;42657;51.650;17.780;2022-11-15T03:54:31;100149.33;;;-0.29;86.37
56789;BME280;42657;51.650;17.780;2022-11-15T03:57:32;100150.90;;;-0.32;86.44
56789;BME280;42657;51.650;17.780;2022-11-15T04:00:34;100150.52;;;-0.34;86.52
56789;BME280;42657;51.650;17.780;2022-11-15T04:03:36;100147.27;;;-0.38;86.32
56789;BME280;42657;51.650;17.780;2022-11-15T04:06:37;100150.05;;;-0.42;86.33
56789;BME280;42657;51.650;17.780;2022-11-15T04:09:39;100145.27;;;-0.45;86.26
56789;BME280;42657;51.650;17.780;2022-11-15T04:12:43;100141.30;;;-0.44;86.35
56789;BME280;42657;51.650;17.780;2022-11-15T04:15:44;100140.98;;;-0.46;86.52
56789;BME280;42657;51.650;17.780;2022-11-15T04:18:46;100144.73;;;-0.49;86.42
56789;BME280;42657;51.650;17.780;2022-11-15T04:21:47;100138.97;;;-0.53;86.41
56789;BME280;42657;51.650;17.780;2022-11-15T04:24:49;100138.86;;;-0.55;86.34
56789;BME280;42657;51.650;17.780;2022-11-15T04:27:50;100131.45;;;-0.57;86.20
56789;BME280;42657;51.650;17.780;2022-11-15T04:30:52;100134.83;;;-0.58;86.59
56789;BME280;42657;51.650;17.780;2022-11-15T04:33:54;100130.49;;;-0.55;86.63
56789;BME280;42657;51.650;17.780;2022-11-15T04:36:55;100124.52;;;-0.57;86.75
56789;BME280;42657;51.650;17.780;2022-11-15T04:39:57;100124.54;;;-0.57;86.69
56789;BME280;42657;51.650;17.780;2022-11-15T04:42:58;100125.67;;;-0.58;86.68
56789;BME280;42657;51.650;17.780;2022-11-15T04:46:00;100131.99;;;-0.56;86.60
56789;BME280;42657;51.650;17.780;2022-11-15T04:49:01;100129.27;;;-0.56;86.62
56789;BME280;42657;51.650;17.780;2022-11-15T04:52:03;100118.89;;;-0.56;86.65
56789;BME280;42657;51.650;17.780;2022-11-15T04:55:05;100112.39;;;-0.59;86.70
56789;BME280;42657;51.650;17.780;2022-11-15T04:58:08;100112.52;;;-0.63;86.80
56789;BME280;42657;51.650;17.780;2022-11-15T05:01:12;100111.52;;;-0.65;86.70
56789;BME280;42657;51.650;17.780;2022-11-15T05:04:13;100108.95;;;-0.65;86.72
56789;BME280;42657;51.650;17.780;2022-11-15T05:07:15;100106.55;;;-0.65;86.80
56789;BME280;42657;51.650;17.780;2022-11-15T05:10:16;100100.75;;;-0.62;86.82
56789;BME280;42657;51.650;17.780;2022-11-15T05:13:18;100101.31;;;-0.59;86.79
56789;BME280;42657;51.650;17.780;2022-11-15T05:16:19;100103.48;;;-0.61;86.73
56789;BME280;42657;51.650;17.780;2022-11-15T05:19:20;100104.41;;;-0.63;86.93
56789;BME280;42657;51.650;17.780;2022-11-15T05:22:22;100105.30;;;-0.63;86.99
56789;BME280;42657;51.650;17.780;2022-11-15T05:25:24;100106.31;;;-0.60;86.94
56789;BME280;42657;51.650;17.780;2022-11-15T05:28:26;100103.55;;;-0.59;86.80
56789;BME280;42657;51.650;17.780;2022-11-15T05:31:27;100091.16;;;-0.55;86.76
56789;BME280;42657;51.650;17.780;2022-11-15T05:34:29;100090.09;;;-0.54;86.79
56789;BME280;42657;51.650;17.780;2022-11-15T05:37:30;100095.40;;;-0.56;86.68
56789;BME280;42657;51.650;17.780;2022-11-15T05:40:33;100093.28;;;-0.60;86.57
56789;BME280;42657;51.650;17.780;2022-11-15T05:43:37;100087.27;;;-0.63;86.64
56789;BME280;42657;51.650;17.780;2022-11-15T05:46:40;100082.77;;;-0.60;86.74
56789;BME280;42657;51.650;17.780;2022-11-15T05:49:44;100086.24;;;-0.59;86.78
56789;BME280;42657;51.650;17.780;2022-11-15T05:52:47;100090.70;;;-0.57;86.59
56789;BME280;42657;51.650;17.780;2022-11-15T05:55:48;100092.45;;;-0.60;86.44
56789;BME280;42657;51.650;17.780;2022-11-15T05:58:52;100094.01;;;-0.66;86.42
56789;BME280;42657;51.650;17.780;2022-11-15T06:01:54;100097.83;;;-0.73;86.36
56789;BME280;42657;51.650;17.780;2022-11-15T06:04:56;100102.55;;;-0.73;86.50
56789;BME280;42657;51.650;17.780;2022-11-15T06:07:58;100099.27;;;-0.71;86.60
56789;BME280;42657;51.650;17.780;2022-11-15T06:11:05;100101.48;;;-0.65;86.82
56789;BME280;42657;51.650;17.780;2022-11-15T06:14:06;100107.06;;;-0.58;86.78
56789;BME280;42657;51.650;17.780;2022-11-15T06:17:08;100102.08;;;-0.55;86.70
56789;BME280;42657;51.650;17.780;2022-11-15T06:20:10;100103.50;;;-0.55;86.55
56789;BME280;42657;51.650;17.780;2022-11-15T06:23:11;100097.21;;;-0.53;86.83
56789;BME280;42657;51.650;17.780;2022-11-15T06:26:13;100097.27;;;-0.46;87.05
56789;BME280;42657;51.650;17.780;2022-11-15T06:29:14;100106.34;;;-0.37;86.88
56789;BME280;42657;51.650;17.780;2022-11-15T06:32:15;100106.59;;;-0.36;86.80
56789;BME280;42657;51.650;17.780;2022-11-15T06:35:17;100100.23;;;-0.31;86.92
56789;BME280;42657;51.650;17.780;2022-11-15T06:38:18;100100.42;;;-0.22;87.07
56789;BME280;42657;51.650;17.780;2022-11-15T06:41:20;100101.50;;;-0.17;86.87
56789;BME280;42657;51.650;17.780;2022-11-15T06:44:22;100103.77;;;-0.14;86.90
56789;BME280;42657;51.650;17.780;2022-11-15T06:47:23;100111.49;;;-0.10;86.85
56789;BME280;42657;51.650;17.780;2022-11-15T06:50:25;100113.14;;;-0.04;86.64
56789;BME280;42657;51.650;17.780;2022-11-15T06:53:27;100108.63;;;0.04;86.84
56789;BME280;42657;51.650;17.780;2022-11-15T06:56:28;100112.55;;;0.09;86.56
56789;BME280;42657;51.650;17.780;2022-11-15T06:59:30;100106.67;;;0.13;86.62
56789;BME280;42657;51.650;17.780;2022-11-15T07:02:32;100102.60;;;0.20;86.63
56789;BME280;42657;51.650;17.780;2022-11-15T07:05:34;100105.90;;;0.24;86.58
56789;BME280;42657;51.650;17.780;2022-11-15T07:08:35;100110.76;;;0.26;86.51
56789;BME280;42657;51.650;17.780;2022-11-15T07:11:37;100117.23;;;0.31;86.39
56789;BME280;42657;51.650;17.780;2022-11-15T07:14:39;100120.59;;;0.34;86.45
56789;BME280;42657;51.650;17.780;2022-11-15T07:17:40;100121.10;;;0.41;86.33
56789;BME280;42657;51.650;17.780;2022-11-15T07:20:42;100119.44;;;0.49;86.42
56789;BME280;42657;51.650;17.780;2022-11-15T07:23:43;100120.64;;;0.53;86.44
56789;BME280;42657;51.650;17.780;2022-11-15T07:26:45;100113.14;;;0.56;86.40
56789;BME280;42657;51.650;17.780;2022-11-15T07:29:46;100117.67;;;0.62;86.43
56789;BME280;42657;51.650;17.780;2022-11-15T07:32:55;100117.94;;;0.66;86.21
56789;BME280;42657;51.650;17.780;2022-11-15T07:36:01;100122.05;;;0.71;86.32
56789;BME280;42657;51.650;17.780;2022-11-15T07:39:02;100126.59;;;0.73;86.30
56789;BME280;42657;51.650;17.780;2022-11-15T07:42:04;100123.50;;;0.77;86.39
56789;BME280;42657;51.650;17.780;2022-11-15T07:45:06;100124.79;;;0.82;86.39
56789;BME280;42657;51.650;17.780;2022-11-15T07:48:07;100111.88;;;0.86;86.30
56789;BME280;42657;51.650;17.780;2022-11-15T07:51:13;100113.05;;;0.92;86.25
56789;BME280;42657;51.650;17.780;2022-11-15T07:54:14;100115.41;;;1.03;86.42
56789;BME280;42657;51.650;17.780;2022-11-15T07:57:16;100111.63;;;1.06;86.34
56789;BME280;42657;51.650;17.780;2022-11-15T08:00:18;100113.23;;;1.11;86.20
56789;BME280;42657;51.650;17.780;2022-11-15T08:03:20;100112.03;;;1.16;86.30
56789;BME280;42657;51.650;17.780;2022-11-15T08:06:21;100102.95;;;1.20;86.24
56789;BME280;42657;51.650;17.780;2022-11-15T08:09:22;100109.46;;;1.29;86.40
56789;BME280;42657;51.650;17.780;2022-11-15T08:12:24;100109.56;;;1.37;86.42
56789;BME280;42657;51.650;17.780;2022-11-15T08:15:26;100103.79;;;1.45;86.38
56789;BME280;42657;51.650;17.780;2022-11-15T08:18:28;100095.58;;;1.50;86.47
56789;BME280;42657;51.650;17.780;2022-11-15T08:21:30;100092.77;;;1.56;86.47
56789;BME280;42657;51.650;17.780;2022-11-15T08:24:31;100095.65;;;1.68;86.60
56789;BME280;42657;51.650;17.780;2022-11-15T08:27:33;100094.52;;;1.78;86.55
56789;BME280;42657;51.650;17.780;2022-11-15T08:30:39;100098.19;;;1.87;86.57
56789;BME280;42657;51.650;17.780;2022-11-15T08:33:41;100094.84;;;2.00;86.77
56789;BME280;42657;51.650;17.780;2022-11-15T08:36:42;100088.05;;;2.09;86.53
56789;BME280;42657;51.650;17.780;2022-11-15T08:39:43;100084.77;;;2.20;86.62
56789;BME280;42657;51.650;17.780;2022-11-15T08:42:48;100083.41;;;2.31;86.57
56789;BME280;42657;51.650;17.780;2022-11-15T08:45:49;100078.63;;;2.43;86.49
56789;BME280;42657;51.650;17.780;2022-11-15T08:48:51;100068.63;;;2.54;86.53
56789;BME280;42657;51.650;17.780;2022-11-15T08:51:52;100060.73;;;2.64;86.56
56789;BME280;42657;51.650;17.780;2022-11-15T08:54:53;100057.70;;;2.76;86.67
56789;BME280;42657;51.650;17.780;2022-11-15T08:57:57;100064.18;;;2.92;86.81
56789;BME280;42657;51.650;17.780;2022-11-15T09:00:59;100059.07;;;3.10;86.92
56789;BME280;42657;51.650;17.780;2022-11-15T09:04:00;100056.92;;;3.27;86.95
56789;BME280;42657;51.650;17.780;2022-11-15T09:07:01;100064.77;;;3.43;86.91
56789;BME280;42657;51.650;17.780;2022-11-15T09:10:03;100061.91;;;3.60;86.82
56789;BME280;42657;51.650;17.780;2022-11-15T09:13:05;100052.13;;;3.74;86.61
56789;BME280;42657;51.650;17.780;2022-11-15T09:16:06;100051.81;;;3.88;86.62
56789;BME280;42657;51.650;17.780;2022-11-15T09:19:08;100055.90;;;4.03;86.71
56789;BME280;42657;51.650;17.780;2022-11-15T09:22:09;100053.48;;;4.18;86.67
56789;BME280;42657;51.650;17.780;2022-11-15T09:25:11;100050.48;;;4.30;86.58
56789;BME280;42657;51.650;17.780;2022-11-15T09:28:12;100048.40;;;4.41;86.45
56789;BME280;42657;51.650;17.780;2022-11-15T09:31:14;100053.06;;;4.53;86.27
56789;BME280;42657;51.650;17.780;2022-11-15T09:34:15;100059.21;;;4.67;86.27
56789;BME280;42657;51.650;17.780;2022-11-15T09:37:17;100051.23;;;4.76;86.15
56789;BME280;42657;51.650;17.780;2022-11-15T09:40:19;100049.48;;;4.85;85.93
56789;BME280;42657;51.650;17.780;2022-11-15T09:43:29;100051.85;;;4.93;85.79
56789;BME280;42657;51.650;17.780;2022-11-15T09:46:50;100045.06;;;5.00;85.63
56789;BME280;42657;51.650;17.780;2022-11-15T09:49:58;100042.30;;;5.06;85.72
56789;BME280;42657;51.650;17.780;2022-11-15T09:53:00;100038.73;;;5.15;85.65
56789;BME280;42657;51.650;17.780;2022-11-15T09:56:05;100041.42;;;5.23;85.43
56789;BME280;42657;51.650;17.780;2022-11-15T10:06:18;100028.98;;;5.51;85.39
56789;BME280;42657;51.650;17.780;2022-11-15T10:09:26;100020.16;;;5.58;85.17
56789;BME280;42657;51.650;17.780;2022-11-15T10:12:31;100009.59;;;5.67;85.05
56789;BME280;42657;51.650;17.780;2022-11-15T10:15:33;100005.78;;;5.77;84.78
56789;BME280;42657;51.650;17.780;2022-11-15T10:18:40;100008.87;;;5.85;84.56
56789;BME280;42657;51.650;17.780;2022-11-15T10:25:31;100009.31;;;6.09;84.53
56789;BME280;42657;51.650;17.780;2022-11-15T10:28:32;100009.86;;;6.22;84.62
56789;BME280;42657;51.650;17.780;2022-11-15T10:31:34;100001.81;;;6.33;84.34
56789;BME280;42657;51.650;17.780;2022-11-15T10:34:35;99994.45;;;6.42;84.24
56789;BME280;42657;51.650;17.780;2022-11-15T10:37:37;99997.59;;;6.52;84.22
56789;BME280;42657;51.650;17.780;2022-11-15T10:40:40;99988.95;;;6.59;84.09
56789;BME280;42657;51.650;17.780;2022-11-15T10:43:42;99983.23;;;6.68;83.98
56789;BME280;42657;51.650;17.780;2022-11-15T10:53:01;99967.40;;;6.96;83.71
56789;BME280;42657;51.650;17.780;2022-11-15T10:56:06;99968.92;;;7.03;83.43
56789;BME280;42657;51.650;17.780;2022-11-15T10:59:16;99971.56;;;7.10;83.63
56789;BME280;42657;51.650;17.780;2022-11-15T11:02:36;99973.36;;;7.19;83.41
56789;BME280;42657;51.650;17.780;2022-11-15T11:05:39;99960.45;;;7.32;83.16
56789;BME280;42657;51.650;17.780;2022-11-15T11:09:02;99957.25;;;7.43;83.15
56789;BME280;42657;51.650;17.780;2022-11-15T11:12:09;99952.11;;;7.51;82.98
56789;BME280;42657;51.650;17.780;2022-11-15T11:15:13;99948.56;;;7.57;82.63
56789;BME280;42657;51.650;17.780;2022-11-15T11:18:27;99943.74;;;7.65;82.57
56789;BME280;42657;51.650;17.780;2022-11-15T11:22:09;99939.98;;;7.75;82.49
56789;BME280;42657;51.650;17.780;2022-11-15T11:28:44;99935.13;;;7.97;82.19
56789;BME280;42657;51.650;17.780;2022-11-15T11:32:16;99930.89;;;8.04;81.97
56789;BME280;42657;51.650;17.780;2022-11-15T11:35:39;99926.55;;;8.14;81.46
56789;BME280;42657;51.650;17.780;2022-11-15T11:39:11;99920.20;;;8.26;81.33
56789;BME280;42657;51.650;17.780;2022-11-15T11:42:54;99923.70;;;8.36;80.92
56789;BME280;42657;51.650;17.780;2022-11-15T11:49:32;99908.23;;;9.63;80.61
56789;BME280;42657;51.650;17.780;2022-11-15T11:52:42;99901.55;;;11.13;79.04
56789;BME280;42657;51.650;17.780;2022-11-15T11:55:57;99906.92;;;12.51;77.06
56789;BME280;42657;51.650;17.780;2022-11-15T11:59:09;99904.58;;;13.55;74.48
56789;BME280;42657;51.650;17.780;2022-11-15T12:02:18;99907.14;;;14.36;72.98
56789;BME280;42657;51.650;17.780;2022-11-15T12:05:35;99903.34;;;13.75;70.98
56789;BME280;42657;51.650;17.780;2022-11-15T12:08:53;99898.65;;;12.69;71.69
56789;BME280;42657;51.650;17.780;2022-11-15T12:12:15;99895.89;;;12.08;72.55
56789;BME280;42657;51.650;17.780;2022-11-15T12:15:23;99897.42;;;11.60;72.81
56789;BME280;42657;51.650;17.780;2022-11-15T12:18:26;99893.97;;;11.15;72.93
56789;BME280;42657;51.650;17.780;2022-11-15T12:21:36;99892.20;;;10.88;73.61
56789;BME280;42657;51.650;17.780;2022-11-15T12:24:44;99888.11;;;11.39;74.40
56789;BME280;42657;51.650;17.780;2022-11-15T12:28:01;99882.15;;;13.06;73.61
56789;BME280;42657;51.650;17.780;2022-11-15T12:31:26;99879.70;;;14.35;71.57
56789;BME280;42657;51.650;17.780;2022-11-15T12:34:41;99880.14;;;13.96;69.68
56789;BME280;42657;51.650;17.780;2022-11-15T12:37:48;99868.81;;;13.18;69.32
56789;BME280;42657;51.650;17.780;2022-11-15T12:41:13;99864.80;;;12.56;69.96
56789;BME280;42657;51.650;17.780;2022-11-15T12:47:32;99848.63;;;11.79;70.56
56789;BME280;42657;51.650;17.780;2022-11-15T12:50:59;99842.57;;;11.52;71.06
56789;BME280;42657;51.650;17.780;2022-11-15T12:57:29;99835.98;;;11.29;71.67
56789;BME280;42657;51.650;17.780;2022-11-15T13:03:33;99832.07;;;11.15;71.20
56789;BME280;42657;51.650;17.780;2022-11-15T13:06:41;99835.32;;;11.01;71.39
56789;BME280;42657;51.650;17.780;2022-11-15T13:12:50;99828.91;;;10.72;71.74
56789;BME280;42657;51.650;17.780;2022-11-15T13:15:58;99829.81;;;10.57;71.94
56789;BME280;42657;51.650;17.780;2022-11-15T13:19:01;99831.64;;;10.43;72.17
56789;BME280;42657;51.650;17.780;2022-11-15T13:22:08;99831.46;;;10.32;72.09
56789;BME280;42657;51.650;17.780;2022-11-15T13:28:42;99824.29;;;10.18;72.26
56789;BME280;42657;51.650;17.780;2022-11-15T13:31:45;99817.95;;;10.10;72.09
56789;BME280;42657;51.650;17.780;2022-11-15T13:34:49;99815.73;;;10.06;72.15
56789;BME280;42657;51.650;17.780;2022-11-15T13:37:52;99814.70;;;10.00;72.50
56789;BME280;42657;51.650;17.780;2022-11-15T13:40:55;99815.10;;;9.91;72.57
56789;BME280;42657;51.650;17.780;2022-11-15T13:43:58;99812.27;;;9.80;72.90
56789;BME280;42657;51.650;17.780;2022-11-15T13:47:13;99808.71;;;9.70;72.92
56789;BME280;42657;51.650;17.780;2022-11-15T13:50:15;99807.44;;;9.58;73.01
56789;BME280;42657;51.650;17.780;2022-11-15T13:53:16;99802.99;;;9.52;73.13
56789;BME280;42657;51.650;17.780;2022-11-15T13:56:19;99803.18;;;9.45;73.17
56789;BME280;42657;51.650;17.780;2022-11-15T13:59:27;99809.23;;;9.39;73.34
56789;BME280;42657;51.650;17.780;2022-11-15T14:02:34;99816.45;;;9.32;73.52
56789;BME280;42657;51.650;17.780;2022-11-15T14:05:36;99811.17;;;9.23;73.59
56789;BME280;42657;51.650;17.780;2022-11-15T14:08:41;99810.09;;;9.13;73.89
56789;BME280;42657;51.650;17.780;2022-11-15T14:11:54;99809.98;;;9.04;74.12
56789;BME280;42657;51.650;17.780;2022-11-15T14:14:57;99806.02;;;8.98;74.43
56789;BME280;42657;51.650;17.780;2022-11-15T14:17:58;99804.05;;;8.94;74.81
56789;BME280;42657;51.650;17.780;2022-11-15T14:21:07;99799.70;;;8.88;75.22
56789;BME280;42657;51.650;17.780;2022-11-15T14:24:20;99800.44;;;8.79;75.49
56789;BME280;42657;51.650;17.780;2022-11-15T14:27:26;99798.83;;;8.65;75.69
56789;BME280;42657;51.650;17.780;2022-11-15T14:30:27;99797.75;;;8.48;76.19
56789;BME280;42657;51.650;17.780;2022-11-15T14:33:32;99793.04;;;8.32;76.30
56789;BME280;42657;51.650;17.780;2022-11-15T14:36:34;99795.25;;;8.18;76.53
56789;BME280;42657;51.650;17.780;2022-11-15T14:39:35;99798.73;;;8.06;76.76
56789;BME280;42657;51.650;17.780;2022-11-15T14:42:37;99797.46;;;7.94;77.05
56789;BME280;42657;51.650;17.780;2022-11-15T14:45:39;99792.08;;;7.78;77.12
56789;BME280;42657;51.650;17.780;2022-11-15T14:48:41;99789.48;;;7.62;77.20
56789;BME280;42657;51.650;17.780;2022-11-15T14:51:42;99786.70;;;7.46;77.35
56789;BME280;42657;51.650;17.780;2022-11-15T14:54:44;99782.83;;;7.32;77.70
56789;BME280;42657;51.650;17.780;2022-11-15T14:57:46;99776.69;;;7.18;77.96
56789;BME280;42657;51.650;17.780;2022-11-15T15:00:47;99777.94;;;7.04;78.30
56789;BME280;42657;51.650;17.780;2022-11-15T15:03:50;99771.64;;;6.91;78.47
56789;BME280;42657;51.650;17.780;2022-11-15T15:06:52;99772.97;;;6.79;78.89
56789;BME280;42657;51.650;17.780;2022-11-15T15:09:54;99767.92;;;6.65;78.83
56789;BME280;42657;51.650;17.780;2022-11-15T15:12:55;99765.98;;;6.50;79.08
56789;BME280;42657;51.650;17.780;2022-11-15T15:15:56;99762.36;;;6.39;79.22
56789;BME280;42657;51.650;17.780;2022-11-15T15:18:58;99761.33;;;6.28;79.55
56789;BME280;42657;51.650;17.780;2022-11-15T15:22:00;99764.09;;;6.15;79.67
56789;BME280;42657;51.650;17.780;2022-11-15T15:25:01;99764.45;;;6.02;80.06
56789;BME280;42657;51.650;17.780;2022-11-15T15:28:03;99763.30;;;5.91;80.22
56789;BME280;42657;51.650;17.780;2022-11-15T15:31:04;99763.46;;;5.79;79.97
56789;BME280;42657;51.650;17.780;2022-11-15T15:34:06;99761.63;;;5.68;80.24
56789;BME280;42657;51.650;17.780;2022-11-15T15:40:23;99761.31;;;5.49;80.64
56789;BME280;42657;51.650;17.780;2022-11-15T15:43:25;99766.03;;;5.41;80.89
56789;BME280;42657;51.650;17.780;2022-11-15T15:46:26;99763.06;;;5.33;80.90
56789;BME280;42657;51.650;17.780;2022-11-15T15:49:28;99757.83;;;5.23;80.95
56789;BME280;42657;51.650;17.780;2022-11-15T15:52:29;99752.61;;;5.16;81.04
56789;BME280;42657;51.650;17.780;2022-11-15T15:55:31;99751.69;;;5.10;81.13
56789;BME280;42657;51.650;17.780;2022-11-15T15:58:33;99746.73;;;5.03;81.50
56789;BME280;42657;51.650;17.780;2022-11-15T16:01:34;99746.77;;;4.97;81.60
56789;BME280;42657;51.650;17.780;2022-11-15T16:04:35;99740.00;;;4.91;81.64
56789;BME280;42657;51.650;17.780;2022-11-15T16:07:38;99740.91;;;4.86;81.84
56789;BME280;42657;51.650;17.780;2022-11-15T16:10:39;99744.23;;;4.84;82.08
56789;BME280;42657;51.650;17.780;2022-11-15T16:13:41;99743.69;;;4.82;82.34
56789;BME280;42657;51.650;17.780;2022-11-15T16:16:42;99743.08;;;4.78;82.45
56789;BME280;42657;51.650;17.780;2022-11-15T16:19:43;99740.40;;;4.73;82.19
56789;BME280;42657;51.650;17.780;2022-11-15T16:22:45;99742.04;;;4.70;82.43
56789;BME280;42657;51.650;17.780;2022-11-15T16:25:54;99742.48;;;4.66;82.47
56789;BME280;42657;51.650;17.780;2022-11-15T16:28:57;99740.24;;;4.60;82.72
56789;BME280;42657;51.650;17.780;2022-11-15T16:31:59;99742.65;;;4.53;82.84
56789;BME280;42657;51.650;17.780;2022-11-15T16:35:00;99747.35;;;4.49;82.93
56789;BME280;42657;51.650;17.780;2022-11-15T16:38:02;99751.58;;;4.44;83.17
56789;BME280;42657;51.650;17.780;2022-11-15T16:41:03;99748.98;;;4.41;83.04
56789;BME280;42657;51.650;17.780;2022-11-15T16:44:05;99744.38;;;4.34;82.97
56789;BME280;42657;51.650;17.780;2022-11-15T16:47:16;99742.33;;;4.26;83.16
56789;BME280;42657;51.650;17.780;2022-11-15T16:50:24;99738.99;;;4.19;83.47
56789;BME280;42657;51.650;17.780;2022-11-15T16:53:26;99737.29;;;4.14;83.57
56789;BME280;42657;51.650;17.780;2022-11-15T16:56:29;99740.77;;;4.15;83.88
56789;BME280;42657;51.650;17.780;2022-11-15T16:59:31;99737.69;;;4.18;83.92
56789;BME280;42657;51.650;17.780;2022-11-15T17:02:32;99728.54;;;4.17;83.98
56789;BME280;42657;51.650;17.780;2022-11-15T17:05:34;99723.80;;;4.19;84.00
56789;BME280;42657;51.650;17.780;2022-11-15T17:08:35;99716.03;;;4.18;84.22
56789;BME280;42657;51.650;17.780;2022-11-15T17:11:37;99712.98;;;4.18;84.29
56789;BME280;42657;51.650;17.780;2022-11-15T17:14:40;99714.77;;;4.18;84.15
56789;BME280;42657;51.650;17.780;2022-11-15T17:17:42;99710.24;;;4.12;84.12
56789;BME280;42657;51.650;17.780;2022-11-15T17:20:44;99709.09;;;4.13;84.38